General Aviation Weather

Text Reports

Enter one or more of the following location identifiers separated by a space:

Zip Code, Four-Character ICAO or Three-Character IATA airport codes.

METAR - Aviation Routine Weather Report
KACQ - Waseca, Minnesota
Updated at 1:16 PM GMT on July 14, 2014 (8:16 AM CDT):
METAR KACQ 141316Z AUTO 30012G16KT 10SM SCT080 15/08 A2997 RMK AO2
TAF - Terminal Area Forecast
KACQ - Waseca, Minnesota
Updated at 1:16 PM GMT on July 14, 2014 (8:16 AM CDT):
No TAF is currently available for this location.
Decoded:
No decoded TAF is available.
PIREP - Pilot Weather Report
KACQ - Waseca, Minnesota
Updated at 1:16 PM GMT on July 14, 2014 (8:16 AM CDT):
No PIREP is currently available for this location.
AIRMET - Airmens Meteorological Information
KACQ - Waseca, Minnesota
Updated at 1:16 PM GMT on July 14, 2014 (8:16 AM CDT):
No AIRMET is currently available for this location.
SIGMET - Significant Meteorological Information
KACQ - Waseca, Minnesota
Updated at 1:16 PM GMT on July 14, 2014 (8:16 AM CDT):
No SIGMET is currently available for this location.
NOTAM - Notice to Airmen
KACQ - Waseca, Minnesota
Updated at 1:16 PM GMT on July 14, 2014 (8:16 AM CDT):
No NOTAM is currently available for this location.
Forecast Area
KACQ - Waseca, Minnesota
Updated at 1:16 PM GMT on July 14, 2014 (8:16 AM CDT):
No NOTAM is currently available for this location.
Aviation Weather Maps